createdAt,value
2023-03-10T00:00:40.392Z,96781.13
2023-03-10T00:03:22.546Z,96784.63
2023-03-10T00:05:49.906Z,96782.97
2023-03-10T00:08:17.480Z,96787.50
2023-03-10T00:10:46.870Z,96792.03
2023-03-10T00:13:14.463Z,96786.72
2023-03-10T00:15:41.778Z,96776.06
2023-03-10T00:18:09.406Z,96770.72
2023-03-10T00:20:36.717Z,96769.09
2023-03-10T00:23:04.676Z,96762.19
2023-03-10T00:25:31.961Z,96751.53
2023-03-10T00:27:59.526Z,96755.00
2023-03-10T00:30:26.846Z,96750.69
2023-03-10T00:32:54.396Z,96752.56
2023-03-10T00:35:21.744Z,96754.41
2023-03-10T00:37:49.756Z,96756.28
2023-03-10T00:40:17.909Z,96758.94
2023-03-10T00:42:45.438Z,96756.50
2023-03-10T00:45:12.758Z,96743.44
2023-03-10T00:47:40.289Z,96738.69
2023-03-10T00:50:08.149Z,96746.09
2023-03-10T00:52:35.678Z,96739.75
2023-03-10T00:55:04.267Z,96741.34
2023-03-10T00:57:31.795Z,96749.59
2023-03-10T00:59:59.080Z,96743.44
2023-03-10T01:02:27.982Z,96727.47
2023-03-10T01:04:55.928Z,96728.28
2023-03-10T01:07:23.438Z,96734.41
2023-03-10T01:09:50.825Z,96726.44
2023-03-10T01:12:18.459Z,96725.84
2023-03-10T01:14:45.724Z,96725.63
2023-03-10T01:17:13.292Z,96721.66
2023-03-10T01:19:40.560Z,96707.28
2023-03-10T01:22:08.754Z,96717.16
2023-03-10T01:24:36.080Z,96713.41
2023-03-10T01:27:03.696Z,96711.81
2023-03-10T01:29:31.033Z,96707.28
2023-03-10T01:31:58.535Z,96709.97
2023-03-10T01:34:25.909Z,96710.53
2023-03-10T01:36:53.507Z,96708.94
2023-03-10T01:39:20.887Z,96699.88
2023-03-10T01:41:48.452Z,96703.59
2023-03-10T01:44:20.024Z,96700.94
2023-03-10T01:46:53.388Z,96699.88
2023-03-10T01:49:39.404Z,96698.28
2023-03-10T01:52:20.103Z,96686.81
2023-03-10T01:54:54.490Z,96692.97
2023-03-10T01:57:26.630Z,96699.88
2023-03-10T01:59:55.402Z,96692.13
2023-03-10T02:02:24.676Z,96691.31
2023-03-10T02:04:54.152Z,96683.34
2023-03-10T02:07:26.471Z,96687.63
2023-03-10T02:09:55.931Z,96688.66
2023-03-10T02:12:23.625Z,96682.31
2023-03-10T02:14:52.846Z,96680.69
2023-03-10T02:17:23.072Z,96684.97
2023-03-10T02:20:06.967Z,96683.09
2023-03-10T02:22:34.550Z,96686.00
2023-03-10T02:25:07.612Z,96692.13
2023-03-10T02:27:36.665Z,96687.63
2023-03-10T02:30:24.564Z,96687.63
2023-03-10T02:32:56.142Z,96687.63
2023-03-10T02:35:24.330Z,96683.09
2023-03-10T02:37:51.770Z,96680.69
2023-03-10T02:40:45.035Z,96671.66
2023-03-10T02:43:32.959Z,96658.81
2023-03-10T02:46:04.420Z,96652.47
2023-03-10T02:48:35.086Z,96656.97
2023-03-10T02:51:07.954Z,96661.47
2023-03-10T02:53:35.240Z,96665.75
2023-03-10T02:56:03.038Z,96666.78
2023-03-10T02:58:31.781Z,96660.69
2023-03-10T03:01:00.305Z,96655.34
2023-03-10T03:03:27.921Z,96652.47
2023-03-10T03:05:55.659Z,96656.16
2023-03-10T03:08:23.597Z,96654.56
2023-03-10T03:10:51.181Z,96654.56
2023-03-10T03:13:18.456Z,96649.22
2023-03-10T03:15:46.610Z,96643.91
2023-03-10T03:18:14.351Z,96636.94
2023-03-10T03:20:41.958Z,96641.25
2023-03-10T03:23:09.618Z,96629.78
2023-03-10T03:25:39.360Z,96634.28
2023-03-10T03:28:09.060Z,96635.34
2023-03-10T03:30:36.562Z,96622.03
2023-03-10T03:33:05.386Z,96628.97
2023-03-10T03:35:36.008Z,96620.19
2023-03-10T03:38:05.142Z,96614.84
2023-03-10T03:40:35.776Z,96612.19
2023-03-10T03:43:03.947Z,96614.06
2023-03-10T03:45:32.753Z,96614.84
2023-03-10T03:48:00.404Z,96616.72
2023-03-10T03:50:28.453Z,96619.38
2023-03-10T03:52:55.709Z,96614.84
2023-03-10T03:55:23.481Z,96608.72
2023-03-10T03:57:50.880Z,96596.44
2023-03-10T04:00:22.492Z,96602.59
2023-03-10T04:02:50.068Z,96598.88
2023-03-10T04:05:18.199Z,96591.13
2023-03-10T04:07:46.143Z,96586.63
2023-03-10T04:10:16.136Z,96584.22
2023-03-10T04:12:44.123Z,96581.53
2023-03-10T04:15:12.603Z,96570.91
2023-03-10T04:17:40.458Z,96556.78
2023-03-10T04:20:09.895Z,96550.63
2023-03-10T04:22:37.435Z,96558.38
2023-03-10T04:25:06.614Z,96552.25
2023-03-10T04:27:34.595Z,96553.28
2023-03-10T04:30:02.350Z,96550.63
2023-03-10T04:32:29.707Z,96550.63
2023-03-10T04:34:57.223Z,96531.19
2023-03-10T04:37:24.590Z,96533.06
2023-03-10T04:39:52.143Z,96535.50
2023-03-10T04:42:19.387Z,96533.06
2023-03-10T04:44:47.052Z,96531.47
2023-03-10T04:47:14.609Z,96536.53
2023-03-10T04:49:42.214Z,96536.53
2023-03-10T04:52:09.541Z,96533.06
2023-03-10T04:54:37.072Z,96534.13
2023-03-10T04:57:04.532Z,96524.03
2023-03-10T04:59:32.085Z,96515.50
2023-03-10T05:01:59.449Z,96508.56
2023-03-10T05:04:27.197Z,96508.56
2023-03-10T05:06:54.499Z,96510.19
2023-03-10T05:09:22.033Z,96506.94
2023-03-10T05:11:49.297Z,96506.94
2023-03-10T05:14:17.944Z,96504.03
2023-03-10T05:16:48.590Z,96496.31
2023-03-10T05:19:16.144Z,96497.34
2023-03-10T05:21:43.399Z,96490.97
2023-03-10T05:24:10.935Z,96488.31
2023-03-10T05:26:38.388Z,96485.66
2023-03-10T05:29:05.881Z,96479.50
2023-03-10T05:31:33.212Z,96484.03
2023-03-10T05:34:00.930Z,96465.41
2023-03-10T05:36:28.364Z,96471.53
2023-03-10T05:38:55.909Z,96473.38
2023-03-10T05:41:23.379Z,96469.69
2023-03-10T05:43:50.977Z,96458.22
2023-03-10T05:46:18.230Z,96454.50
2023-03-10T05:48:46.307Z,96446.53
2023-03-10T05:51:13.798Z,96452.09
2023-03-10T05:53:41.786Z,96434.25
2023-03-10T05:56:14.113Z,96426.03
2023-03-10T05:58:42.086Z,96427.66
2023-03-10T06:01:09.667Z,96423.94
2023-03-10T06:03:38.279Z,96426.59
2023-03-10T06:06:06.981Z,96430.63
2023-03-10T06:08:35.276Z,96429.81
2023-03-10T06:11:02.741Z,96428.75
2023-03-10T06:13:31.442Z,96435.69
2023-03-10T06:16:01.208Z,96427.72
2023-03-10T06:18:29.531Z,96419.97
2023-03-10T06:20:57.636Z,96420.28
2023-03-10T06:23:25.928Z,96423.75
2023-03-10T06:26:02.576Z,96417.63
2023-03-10T06:28:33.047Z,96417.63
2023-03-10T06:31:02.496Z,96408.00
2023-03-10T06:33:30.216Z,96410.69
2023-03-10T06:35:58.297Z,96413.34
2023-03-10T06:38:26.332Z,96417.06
2023-03-10T06:40:53.772Z,96402.97
2023-03-10T06:43:21.416Z,96393.91
2023-03-10T06:45:49.645Z,96399.47
2023-03-10T06:48:17.316Z,96388.81
2023-03-10T06:50:48.025Z,96386.72
2023-03-10T06:53:18.412Z,96379.81
2023-03-10T06:55:56.668Z,96380.13
2023-03-10T06:58:24.568Z,96374.78
2023-03-10T07:00:52.424Z,96374.28
2023-03-10T07:03:20.407Z,96368.72
2023-03-10T07:05:48.039Z,96357.00
2023-03-10T07:08:15.596Z,96354.91
2023-03-10T07:10:43.340Z,96356.53
2023-03-10T07:13:15.404Z,96359.72
2023-03-10T07:15:44.279Z,96353.34
2023-03-10T07:18:13.298Z,96352.28
2023-03-10T07:20:42.512Z,96351.25
2023-03-10T07:23:10.288Z,96339.78
2023-03-10T07:25:39.223Z,96342.47
2023-03-10T07:28:07.465Z,96346.94
2023-03-10T07:30:35.105Z,96341.38
2023-03-10T07:33:03.141Z,96341.63
2023-03-10T07:35:30.331Z,96344.28
2023-03-10T07:37:57.871Z,96344.84
2023-03-10T07:40:25.565Z,96331.53
2023-03-10T07:42:54.867Z,96339.31
2023-03-10T07:45:24.003Z,96338.28
2023-03-10T07:47:52.767Z,96339.06
2023-03-10T07:50:20.981Z,96331.63
2023-03-10T07:52:49.887Z,96323.38
2023-03-10T07:55:18.429Z,96319.66
2023-03-10T07:57:45.977Z,96319.91
2023-03-10T08:00:14.519Z,96329.53
2023-03-10T08:02:43.101Z,96325.00
2023-03-10T08:05:11.916Z,96326.59
2023-03-10T08:07:39.546Z,96319.44
2023-03-10T08:10:07.612Z,96315.94
2023-03-10T08:12:35.583Z,96315.94
2023-03-10T08:15:04.782Z,96309.81
2023-03-10T08:17:33.423Z,96313.56
2023-03-10T08:20:01.084Z,96309.81
2023-03-10T08:22:28.831Z,96311.44
2023-03-10T08:24:56.323Z,96297.28
2023-03-10T08:27:23.723Z,96291.72
2023-03-10T08:29:51.742Z,96312.00
2023-03-10T08:32:19.882Z,96306.66
2023-03-10T08:34:47.658Z,96299.47
2023-03-10T08:37:14.960Z,96304.00
2023-03-10T08:39:42.547Z,96305.59
2023-03-10T08:42:11.977Z,96303.50
2023-03-10T08:44:40.295Z,96303.50
2023-03-10T08:47:07.978Z,96298.16
2023-03-10T08:49:36.747Z,96303.50
2023-03-10T08:52:04.179Z,96306.16
2023-03-10T08:54:32.686Z,96303.50
2023-03-10T08:57:00.857Z,96308.00
2023-03-10T08:59:28.478Z,96302.69
2023-03-10T09:01:55.820Z,96307.19
2023-03-10T09:04:24.605Z,96309.59
2023-03-10T09:06:51.820Z,96308.81
2023-03-10T09:09:19.766Z,96295.25
2023-03-10T09:11:47.203Z,96304.03
2023-03-10T09:14:17.328Z,96292.31
2023-03-10T09:16:45.268Z,96288.59
2023-03-10T09:19:13.020Z,96297.63
2023-03-10T09:21:42.290Z,96286.19
2023-03-10T09:24:09.975Z,96294.72
2023-03-10T09:26:37.256Z,96289.16
2023-03-10T09:29:05.099Z,96288.09
2023-03-10T09:31:35.499Z,96287.59
2023-03-10T09:34:04.253Z,96279.34
2023-03-10T09:36:32.703Z,96292.41
2023-03-10T09:39:00.796Z,96283.38
2023-03-10T09:41:53.805Z,96284.97
2023-03-10T09:44:43.269Z,96270.59
2023-03-10T09:47:10.937Z,96276.72
2023-03-10T09:49:43.997Z,96283.66
2023-03-10T09:52:45.978Z,96280.19
2023-03-10T09:55:25.304Z,96274.88
2023-03-10T09:57:55.631Z,96281.53
2023-03-10T10:00:27.892Z,96279.13
2023-03-10T10:03:28.473Z,96281.53
2023-03-10T10:05:57.536Z,96280.75
2023-03-10T10:08:33.081Z,96273.53
2023-03-10T10:11:03.408Z,96282.88
2023-03-10T10:13:30.915Z,96264.25
2023-03-10T10:16:32.070Z,96272.78
2023-03-10T10:19:13.988Z,96273.06
2023-03-10T10:22:20.845Z,96266.66
2023-03-10T10:25:09.176Z,96262.91
2023-03-10T10:27:37.632Z,96254.94
2023-03-10T10:30:29.770Z,96250.97
2023-03-10T10:33:06.504Z,96244.31
2023-03-10T10:35:46.420Z,96240.88
2023-03-10T10:38:20.626Z,96232.88
2023-03-10T10:40:58.658Z,96243.00
2023-03-10T10:43:26.170Z,96235.00
2023-03-10T10:45:55.926Z,96237.69
2023-03-10T10:48:42.936Z,96233.94
2023-03-10T10:51:27.152Z,96239.25
2023-03-10T10:54:19.615Z,96235.56
2023-03-10T10:56:58.234Z,96230.22
2023-03-10T10:59:30.225Z,96223.03
2023-03-10T11:02:23.133Z,96224.66
2023-03-10T11:04:50.772Z,96222.78
2023-03-10T11:07:27.450Z,96226.50
2023-03-10T11:09:58.019Z,96213.72
2023-03-10T11:12:34.751Z,96219.03
2023-03-10T11:15:09.104Z,96208.38
2023-03-10T11:17:50.106Z,96204.13
2023-03-10T11:20:56.272Z,96203.06
2023-03-10T11:23:49.455Z,96196.13
2023-03-10T11:26:44.610Z,96196.38
2023-03-10T11:29:36.397Z,96195.34
2023-03-10T11:32:23.621Z,96194.50
2023-03-10T11:34:53.982Z,96191.84
2023-03-10T11:37:29.933Z,96190.50
2023-03-10T11:40:15.088Z,96185.97
2023-03-10T11:42:58.736Z,96181.72
2023-03-10T11:45:42.800Z,96175.84
2023-03-10T11:48:28.979Z,96175.84
2023-03-10T11:50:59.383Z,96176.91
2023-03-10T11:53:50.137Z,96168.94
2023-03-10T11:56:22.916Z,96169.97
2023-03-10T11:58:50.428Z,96161.97
2023-03-10T12:01:24.459Z,96180.88
2023-03-10T12:03:58.327Z,96190.75
2023-03-10T12:06:52.712Z,96173.16
2023-03-10T12:09:43.472Z,96174.22
2023-03-10T12:12:15.532Z,96167.84
2023-03-10T12:14:45.108Z,96171.53
2023-03-10T12:17:15.475Z,96163.53
2023-03-10T12:20:11.922Z,96163.00
2023-03-10T12:22:41.964Z,96155.00
2023-03-10T12:25:28.144Z,96158.50
2023-03-10T12:28:17.480Z,96159.28
2023-03-10T12:31:06.420Z,96153.97
2023-03-10T12:33:34.096Z,96155.84
2023-03-10T12:36:05.328Z,96152.34
2023-03-10T12:38:46.137Z,96155.00
2023-03-10T12:41:36.615Z,96157.66
2023-03-10T12:44:06.562Z,96156.63
2023-03-10T12:46:50.563Z,96160.34
2023-03-10T12:49:17.831Z,96155.00
2023-03-10T12:51:51.740Z,96159.28
2023-03-10T12:54:21.588Z,96155.56
2023-03-10T12:57:04.888Z,96153.97
2023-03-10T12:59:37.071Z,96150.22
2023-03-10T13:02:20.697Z,96160.88
2023-03-10T13:04:48.015Z,96159.28
2023-03-10T13:07:17.312Z,96159.28
2023-03-10T13:09:47.903Z,96151.56
2023-03-10T13:12:25.290Z,96155.00
2023-03-10T13:14:56.512Z,96156.09
2023-03-10T13:17:29.944Z,96153.16
2023-03-10T13:20:14.077Z,96154.75
2023-03-10T13:23:00.998Z,96153.16
2023-03-10T13:25:28.548Z,96137.97
2023-03-10T13:27:57.540Z,96138.22
2023-03-10T13:30:27.722Z,96149.69
2023-03-10T13:33:01.347Z,96144.34
2023-03-10T13:35:31.440Z,96145.44
2023-03-10T13:38:25.454Z,96139.03
2023-03-10T13:41:02.206Z,96149.13
2023-03-10T13:43:41.609Z,96153.66
2023-03-10T13:46:27.908Z,96151.00
2023-03-10T13:49:03.535Z,96146.47
2023-03-10T13:51:33.620Z,96143.81
2023-03-10T13:54:19.581Z,96148.63
2023-03-10T13:56:48.745Z,96133.44
2023-03-10T13:59:21.863Z,96134.78
2023-03-10T14:01:53.792Z,96125.47
2023-03-10T14:05:00.993Z,96138.00
2023-03-10T14:07:31.753Z,96127.88
2023-03-10T14:10:05.282Z,96129.50
2023-03-10T14:12:39.332Z,96115.34
2023-03-10T14:15:14.211Z,96115.63
2023-03-10T14:17:43.509Z,96110.31
2023-03-10T14:20:28.394Z,96118.31
2023-03-10T14:22:56.294Z,96113.78
2023-03-10T14:25:24.882Z,96111.66
2023-03-10T14:28:19.004Z,96108.75
2023-03-10T14:30:46.642Z,96106.63
2023-03-10T14:33:15.820Z,96102.88
2023-03-10T14:35:45.939Z,96099.19
2023-03-10T14:38:14.208Z,96094.63
2023-03-10T14:40:47.021Z,96087.69
2023-03-10T14:43:18.593Z,96096.22
2023-03-10T14:45:50.864Z,96090.09
2023-03-10T14:48:21.834Z,96097.06
2023-03-10T14:50:49.872Z,96092.25
2023-03-10T14:53:20.435Z,96087.19
2023-03-10T14:55:51.639Z,96081.84
2023-03-10T14:58:22.376Z,96098.63
2023-03-10T15:00:50.407Z,96091.72
2023-03-10T15:03:17.726Z,96091.72
2023-03-10T15:05:49.136Z,96088.50
2023-03-10T15:08:17.687Z,96079.44
2023-03-10T15:10:48.431Z,96081.06
2023-03-10T15:13:18.793Z,96079.44
2023-03-10T15:15:47.717Z,96080.53
2023-03-10T15:18:19.913Z,96076.25
2023-03-10T15:20:48.938Z,96077.03
2023-03-10T15:23:20.028Z,96069.31
2023-03-10T15:25:48.395Z,96069.31
2023-03-10T15:28:16.001Z,96067.19
2023-03-10T15:30:44.095Z,96061.88
2023-03-10T15:33:11.608Z,96069.31
2023-03-10T15:35:39.956Z,96065.56
2023-03-10T15:38:07.402Z,96062.91
2023-03-10T15:40:35.725Z,96071.69
2023-03-10T15:43:03.221Z,96062.38
2023-03-10T15:45:31.779Z,96062.38
2023-03-10T15:47:59.044Z,96064.00
2023-03-10T15:50:26.884Z,96064.78
2023-03-10T15:52:57.218Z,96054.91
2023-03-10T15:55:25.926Z,96053.59
2023-03-10T15:57:53.744Z,96059.72
2023-03-10T16:00:23.412Z,96050.13
2023-03-10T16:02:51.101Z,96048.50
2023-03-10T16:05:19.122Z,96051.16
2023-03-10T16:07:46.689Z,96054.66
2023-03-10T16:10:17.317Z,96057.56
2023-03-10T16:12:44.926Z,96060.00
2023-03-10T16:15:15.331Z,96049.84
2023-03-10T16:17:44.371Z,96060.50
2023-03-10T16:20:18.932Z,96056.50
2023-03-10T16:22:46.661Z,96053.03
2023-03-10T16:25:16.300Z,96053.81
2023-03-10T16:27:46.777Z,96050.63
2023-03-10T16:30:15.819Z,96053.28
2023-03-10T16:32:48.077Z,96058.63
2023-03-10T16:35:16.841Z,96057.03
2023-03-10T16:37:44.527Z,96057.03
2023-03-10T16:40:12.737Z,96055.41
2023-03-10T16:42:43.269Z,96051.69
2023-03-10T16:45:11.430Z,96050.06
2023-03-10T16:47:38.921Z,96050.06
2023-03-10T16:50:06.815Z,96052.75
2023-03-10T16:52:39.317Z,96049.28
2023-03-10T16:55:09.370Z,96054.88
2023-03-10T16:57:36.757Z,96052.19
2023-03-10T17:00:09.351Z,96048.50
2023-03-10T17:02:36.627Z,96052.19
2023-03-10T17:05:04.567Z,96047.94
2023-03-10T17:07:32.772Z,96051.16
2023-03-10T17:10:04.954Z,96052.19
2023-03-10T17:12:32.440Z,96050.63
2023-03-10T17:15:00.154Z,96059.16
2023-03-10T17:17:29.869Z,96060.44
2023-03-10T17:19:58.514Z,96061.28
2023-03-10T17:22:25.814Z,96063.09
2023-03-10T17:24:55.446Z,96068.44
2023-03-10T17:27:22.974Z,96062.31
2023-03-10T17:29:50.659Z,96052.72
2023-03-10T17:32:18.074Z,96056.19
2023-03-10T17:34:51.917Z,96051.94
2023-03-10T17:37:19.387Z,96059.09
2023-03-10T17:39:48.140Z,96054.59
2023-03-10T17:42:15.816Z,96047.41
2023-03-10T17:44:43.381Z,96051.13
2023-03-10T17:47:12.214Z,96040.47
2023-03-10T17:49:41.022Z,96035.13
2023-03-10T17:52:08.436Z,96040.47
2023-03-10T17:54:36.137Z,96035.13
2023-03-10T17:57:03.513Z,96040.47
2023-03-10T17:59:32.829Z,96031.94
2023-03-10T18:02:02.588Z,96036.47
2023-03-10T18:04:30.500Z,96030.09
2023-03-10T18:06:57.871Z,96021.28
2023-03-10T18:09:25.419Z,96021.28
2023-03-10T18:11:55.466Z,96020.47
2023-03-10T18:14:24.851Z,96020.47
2023-03-10T18:16:52.609Z,96014.34
2023-03-10T18:19:21.258Z,96017.81
2023-03-10T18:21:49.653Z,96025.00
2023-03-10T18:24:17.687Z,96025.00
2023-03-10T18:26:45.703Z,96033.00
2023-03-10T18:29:14.344Z,96044.44
2023-03-10T18:31:41.886Z,96041.00
2023-03-10T18:34:10.268Z,96039.38
2023-03-10T18:36:38.972Z,96050.03
2023-03-10T18:39:07.869Z,96042.31
2023-03-10T18:41:35.963Z,96044.69
2023-03-10T18:44:05.040Z,96037.78
2023-03-10T18:46:32.336Z,96036.16
2023-03-10T18:49:00.127Z,96025.50
2023-03-10T18:51:28.416Z,96036.16
2023-03-10T18:53:56.513Z,96037.00
2023-03-10T18:56:26.003Z,96036.16
2023-03-10T18:58:53.901Z,96031.91
2023-03-10T19:01:21.860Z,96029.25
2023-03-10T19:03:49.654Z,96029.25
2023-03-10T19:06:17.491Z,96025.50
2023-03-10T19:08:45.559Z,96023.13
2023-03-10T19:11:13.052Z,96020.19
2023-03-10T19:13:44.034Z,96018.59
2023-03-10T19:16:11.943Z,96015.38
2023-03-10T19:18:40.302Z,96018.84
2023-03-10T19:21:09.360Z,96025.00
2023-03-10T19:23:37.254Z,96018.59
2023-03-10T19:26:05.055Z,96027.66
2023-03-10T19:28:32.829Z,96021.50
2023-03-10T19:31:00.218Z,96018.06
2023-03-10T19:33:28.074Z,96018.06
2023-03-10T19:36:04.276Z,96020.72
2023-03-10T19:38:35.192Z,96014.59
2023-03-10T19:41:03.773Z,96019.91
2023-03-10T19:43:32.290Z,96011.94
2023-03-10T19:46:02.420Z,96010.06
2023-03-10T19:48:30.058Z,96015.38
2023-03-10T19:50:59.314Z,96014.59
2023-03-10T19:53:30.000Z,96001.53
2023-03-10T19:55:59.969Z,96001.53
2023-03-10T19:58:27.612Z,96003.16
2023-03-10T20:00:57.838Z,96009.53
2023-03-10T20:03:28.078Z,95995.41
2023-03-10T20:05:56.617Z,95991.94
2023-03-10T20:08:24.862Z,95983.97
2023-03-10T20:10:52.269Z,95985.00
2023-03-10T20:13:19.864Z,95986.09
2023-03-10T20:15:47.267Z,95983.41
2023-03-10T20:18:18.294Z,95981.56
2023-03-10T20:20:45.668Z,95980.75
2023-03-10T20:23:13.658Z,95973.81
2023-03-10T20:25:42.193Z,95968.50
2023-03-10T20:28:10.700Z,95960.78
2023-03-10T20:30:39.910Z,95965.28
2023-03-10T20:33:08.190Z,95965.28
2023-03-10T20:35:38.099Z,95955.72
2023-03-10T20:38:05.861Z,95960.78
2023-03-10T20:40:33.243Z,95953.84
2023-03-10T20:43:00.877Z,95953.03
2023-03-10T20:45:28.428Z,95953.03
2023-03-10T20:47:56.871Z,95953.84
2023-03-10T20:50:24.462Z,95947.72
2023-03-10T20:52:52.733Z,95949.31
2023-03-10T20:55:24.581Z,95943.19
2023-03-10T20:57:55.526Z,95938.09
2023-03-10T21:00:25.380Z,95938.09
2023-03-10T21:02:56.914Z,95933.84
2023-03-10T21:05:27.037Z,95924.78
2023-03-10T21:07:55.324Z,95930.13
2023-03-10T21:10:22.897Z,95933.84
2023-03-10T21:12:50.824Z,95935.44
2023-03-10T21:15:19.492Z,95932.00
2023-03-10T21:17:47.724Z,95934.66
2023-03-10T21:20:19.799Z,95929.31
2023-03-10T21:22:48.104Z,95928.53
2023-03-10T21:25:21.815Z,95923.22
2023-03-10T21:27:52.928Z,95923.22
2023-03-10T21:30:21.381Z,95920.00
2023-03-10T21:32:49.204Z,95918.94
2023-03-10T21:35:17.497Z,95913.59
2023-03-10T21:37:49.329Z,95915.22
2023-03-10T21:40:20.244Z,95905.63
2023-03-10T21:42:49.189Z,95904.03
2023-03-10T21:45:20.473Z,95894.97
2023-03-10T21:47:48.044Z,95896.56
2023-03-10T21:50:16.515Z,95895.50
2023-03-10T21:52:44.676Z,95885.94
2023-03-10T21:55:18.538Z,95892.03
2023-03-10T21:57:46.125Z,95897.63
2023-03-10T22:00:15.518Z,95894.44
2023-03-10T22:02:43.234Z,95898.16
2023-03-10T22:05:13.933Z,95899.00
2023-03-10T22:07:42.036Z,95895.50
2023-03-10T22:10:11.385Z,95883.81
2023-03-10T22:12:40.255Z,95877.69
2023-03-10T22:15:12.597Z,95882.19
2023-03-10T22:17:42.695Z,95883.25
2023-03-10T22:20:16.965Z,95877.69
2023-03-10T22:22:44.779Z,95876.06
2023-03-10T22:25:12.472Z,95870.75
2023-03-10T22:27:40.414Z,95864.63
2023-03-10T22:30:08.615Z,95867.81
2023-03-10T22:32:36.271Z,95860.88
2023-03-10T22:35:03.691Z,95858.50
2023-03-10T22:37:31.695Z,95858.22
2023-03-10T22:39:58.980Z,95852.34
2023-03-10T22:42:26.537Z,95851.31
2023-03-10T22:44:53.797Z,95845.97
2023-03-10T22:47:21.324Z,95843.31
2023-03-10T22:49:48.829Z,95844.38
2023-03-10T22:52:16.850Z,95847.03
2023-03-10T22:54:44.133Z,95839.03
2023-03-10T22:57:15.064Z,95841.69
2023-03-10T22:59:42.319Z,95848.66
2023-03-10T23:02:10.696Z,95845.19
2023-03-10T23:04:39.009Z,95838.00
2023-03-10T23:07:06.526Z,95840.66
2023-03-10T23:09:33.827Z,95844.09
2023-03-10T23:12:01.360Z,95841.69
2023-03-10T23:14:28.659Z,95849.69
2023-03-10T23:16:56.519Z,95846.22
2023-03-10T23:19:23.785Z,95850.50
2023-03-10T23:21:51.377Z,95849.69
2023-03-10T23:24:19.777Z,95845.19
2023-03-10T23:26:48.256Z,95851.56
2023-03-10T23:29:15.635Z,95849.69
2023-03-10T23:31:43.278Z,95847.03
2023-03-10T23:34:11.502Z,95854.22
2023-03-10T23:36:39.957Z,95845.44
2023-03-10T23:39:09.953Z,95850.78
2023-03-10T23:41:37.583Z,95839.31
2023-03-10T23:44:04.918Z,95838.50
2023-03-10T23:46:32.437Z,95839.56
2023-03-10T23:48:59.730Z,95843.81
2023-03-10T23:51:28.884Z,95838.50
2023-03-10T23:53:56.552Z,95843.81
2023-03-10T23:56:24.192Z,95835.84
2023-03-10T23:58:51.432Z,95843.81
